sensor_id;sensor_type;location;lat;lon;timestamp;P1;durP1;ratioP1;P2;durP2;ratioP2
24483;SDS011;12643;51.620;7.548;2023-07-13T00:00:55;5.68;;;2.38;;
24483;SDS011;12643;51.620;7.548;2023-07-13T00:03:23;8.48;;;2.65;;
24483;SDS011;12643;51.620;7.548;2023-07-13T00:05:57;10.30;;;2.90;;
24483;SDS011;12643;51.620;7.548;2023-07-13T00:08:26;12.43;;;2.78;;
24483;SDS011;12643;51.620;7.548;2023-07-13T00:10:58;4.55;;;2.53;;
24483;SDS011;12643;51.620;7.548;2023-07-13T00:13:26;9.63;;;2.70;;
24483;SDS011;12643;51.620;7.548;2023-07-13T00:15:54;4.20;;;2.28;;
24483;SDS011;12643;51.620;7.548;2023-07-13T00:18:22;8.48;;;2.22;;
24483;SDS011;12643;51.620;7.548;2023-07-13T00:20:50;4.28;;;2.53;;
24483;SDS011;12643;51.620;7.548;2023-07-13T00:23:18;10.38;;;3.30;;
24483;SDS011;12643;51.620;7.548;2023-07-13T00:25:47;14.23;;;4.10;;
24483;SDS011;12643;51.620;7.548;2023-07-13T00:28:16;10.85;;;4.15;;
24483;SDS011;12643;51.620;7.548;2023-07-13T00:30:44;11.90;;;4.15;;
24483;SDS011;12643;51.620;7.548;2023-07-13T00:33:12;10.25;;;3.28;;
24483;SDS011;12643;51.620;7.548;2023-07-13T00:35:40;9.48;;;3.50;;
24483;SDS011;12643;51.620;7.548;2023-07-13T00:38:09;10.00;;;3.63;;
24483;SDS011;12643;51.620;7.548;2023-07-13T00:40:37;7.25;;;3.25;;
24483;SDS011;12643;51.620;7.548;2023-07-13T00:43:08;11.25;;;3.40;;
24483;SDS011;12643;51.620;7.548;2023-07-13T00:48:49;9.35;;;3.45;;
24483;SDS011;12643;51.620;7.548;2023-07-13T00:51:18;11.30;;;3.10;;
24483;SDS011;12643;51.620;7.548;2023-07-13T00:53:50;5.57;;;2.42;;
24483;SDS011;12643;51.620;7.548;2023-07-13T00:56:19;8.85;;;2.90;;
24483;SDS011;12643;51.620;7.548;2023-07-13T00:58:48;4.88;;;2.47;;
24483;SDS011;12643;51.620;7.548;2023-07-13T01:01:17;7.60;;;2.65;;
24483;SDS011;12643;51.620;7.548;2023-07-13T01:03:44;8.07;;;2.42;;
24483;SDS011;12643;51.620;7.548;2023-07-13T01:06:12;6.97;;;2.60;;
24483;SDS011;12643;51.620;7.548;2023-07-13T01:08:43;9.02;;;2.38;;
24483;SDS011;12643;51.620;7.548;2023-07-13T01:11:10;6.22;;;2.30;;
24483;SDS011;12643;51.620;7.548;2023-07-13T01:13:38;5.55;;;2.20;;
24483;SDS011;12643;51.620;7.548;2023-07-13T01:16:11;5.80;;;2.38;;
24483;SDS011;12643;51.620;7.548;2023-07-13T01:18:44;6.65;;;2.35;;
24483;SDS011;12643;51.620;7.548;2023-07-13T01:21:13;3.65;;;1.88;;
24483;SDS011;12643;51.620;7.548;2023-07-13T01:26:11;10.95;;;2.40;;
24483;SDS011;12643;51.620;7.548;2023-07-13T01:28:38;5.03;;;1.88;;
24483;SDS011;12643;51.620;7.548;2023-07-13T01:31:06;4.90;;;2.00;;
24483;SDS011;12643;51.620;7.548;2023-07-13T01:33:36;5.00;;;2.25;;
24483;SDS011;12643;51.620;7.548;2023-07-13T01:36:05;5.03;;;1.77;;
24483;SDS011;12643;51.620;7.548;2023-07-13T01:38:34;7.20;;;2.03;;
24483;SDS011;12643;51.620;7.548;2023-07-13T01:41:02;5.25;;;2.30;;
24483;SDS011;12643;51.620;7.548;2023-07-13T01:43:30;9.80;;;2.08;;
24483;SDS011;12643;51.620;7.548;2023-07-13T01:45:58;10.60;;;2.45;;
24483;SDS011;12643;51.620;7.548;2023-07-13T01:48:26;8.63;;;2.58;;
24483;SDS011;12643;51.620;7.548;2023-07-13T01:50:54;7.78;;;2.05;;
24483;SDS011;12643;51.620;7.548;2023-07-13T01:53:22;3.72;;;1.73;;
24483;SDS011;12643;51.620;7.548;2023-07-13T01:55:51;7.78;;;2.00;;
24483;SDS011;12643;51.620;7.548;2023-07-13T01:58:18;5.65;;;2.05;;
24483;SDS011;12643;51.620;7.548;2023-07-13T02:00:48;2.97;;;1.80;;
24483;SDS011;12643;51.620;7.548;2023-07-13T02:03:16;7.00;;;2.50;;
24483;SDS011;12643;51.620;7.548;2023-07-13T02:05:45;4.35;;;1.55;;
24483;SDS011;12643;51.620;7.548;2023-07-13T02:08:13;5.40;;;2.28;;
24483;SDS011;12643;51.620;7.548;2023-07-13T02:10:40;8.98;;;2.17;;
24483;SDS011;12643;51.620;7.548;2023-07-13T02:13:10;4.85;;;1.85;;
24483;SDS011;12643;51.620;7.548;2023-07-13T02:15:38;5.18;;;1.65;;
24483;SDS011;12643;51.620;7.548;2023-07-13T02:18:07;7.90;;;2.10;;
24483;SDS011;12643;51.620;7.548;2023-07-13T02:20:35;9.75;;;2.33;;
24483;SDS011;12643;51.620;7.548;2023-07-13T02:23:02;11.70;;;2.30;;
24483;SDS011;12643;51.620;7.548;2023-07-13T02:25:30;4.95;;;2.05;;
24483;SDS011;12643;51.620;7.548;2023-07-13T02:27:58;7.53;;;1.85;;
24483;SDS011;12643;51.620;7.548;2023-07-13T02:30:27;5.30;;;2.03;;
24483;SDS011;12643;51.620;7.548;2023-07-13T02:32:55;6.00;;;1.58;;
24483;SDS011;12643;51.620;7.548;2023-07-13T02:35:23;6.20;;;2.03;;
24483;SDS011;12643;51.620;7.548;2023-07-13T02:37:51;11.25;;;2.50;;
24483;SDS011;12643;51.620;7.548;2023-07-13T02:40:19;6.53;;;1.95;;
24483;SDS011;12643;51.620;7.548;2023-07-13T02:42:47;7.45;;;1.83;;
24483;SDS011;12643;51.620;7.548;2023-07-13T02:45:14;8.40;;;1.83;;
24483;SDS011;12643;51.620;7.548;2023-07-13T02:47:43;6.63;;;1.95;;
24483;SDS011;12643;51.620;7.548;2023-07-13T02:50:11;6.10;;;1.70;;
24483;SDS011;12643;51.620;7.548;2023-07-13T02:52:39;9.07;;;2.03;;
24483;SDS011;12643;51.620;7.548;2023-07-13T02:55:07;6.97;;;1.90;;
24483;SDS011;12643;51.620;7.548;2023-07-13T02:57:35;6.07;;;1.63;;
24483;SDS011;12643;51.620;7.548;2023-07-13T03:00:04;7.03;;;1.67;;
24483;SDS011;12643;51.620;7.548;2023-07-13T03:02:33;4.13;;;1.48;;
24483;SDS011;12643;51.620;7.548;2023-07-13T03:05:03;5.97;;;1.90;;
24483;SDS011;12643;51.620;7.548;2023-07-13T03:07:31;6.57;;;2.08;;
24483;SDS011;12643;51.620;7.548;2023-07-13T03:09:59;8.02;;;2.03;;
24483;SDS011;12643;51.620;7.548;2023-07-13T03:12:27;4.40;;;1.70;;
24483;SDS011;12643;51.620;7.548;2023-07-13T03:14:54;5.63;;;1.85;;
24483;SDS011;12643;51.620;7.548;2023-07-13T03:17:23;3.17;;;1.80;;
24483;SDS011;12643;51.620;7.548;2023-07-13T03:19:51;9.00;;;1.90;;
24483;SDS011;12643;51.620;7.548;2023-07-13T03:22:21;3.10;;;1.50;;
24483;SDS011;12643;51.620;7.548;2023-07-13T03:24:49;5.32;;;1.63;;
24483;SDS011;12643;51.620;7.548;2023-07-13T03:27:17;3.97;;;1.60;;
24483;SDS011;12643;51.620;7.548;2023-07-13T03:29:45;5.35;;;1.90;;
24483;SDS011;12643;51.620;7.548;2023-07-13T03:32:12;8.15;;;2.05;;
24483;SDS011;12643;51.620;7.548;2023-07-13T03:34:40;7.93;;;1.80;;
24483;SDS011;12643;51.620;7.548;2023-07-13T03:37:08;6.18;;;1.70;;
24483;SDS011;12643;51.620;7.548;2023-07-13T03:39:37;6.05;;;2.05;;
24483;SDS011;12643;51.620;7.548;2023-07-13T03:42:05;3.90;;;1.92;;
24483;SDS011;12643;51.620;7.548;2023-07-13T03:44:34;5.68;;;1.50;;
24483;SDS011;12643;51.620;7.548;2023-07-13T03:47:02;5.57;;;1.50;;
24483;SDS011;12643;51.620;7.548;2023-07-13T03:49:31;6.30;;;1.85;;
24483;SDS011;12643;51.620;7.548;2023-07-13T03:51:59;5.72;;;2.20;;
24483;SDS011;12643;51.620;7.548;2023-07-13T03:54:27;11.85;;;2.13;;
24483;SDS011;12643;51.620;7.548;2023-07-13T03:56:56;6.70;;;2.03;;
24483;SDS011;12643;51.620;7.548;2023-07-13T03:59:24;5.50;;;1.52;;
24483;SDS011;12643;51.620;7.548;2023-07-13T04:01:51;6.15;;;2.10;;
24483;SDS011;12643;51.620;7.548;2023-07-13T04:04:20;8.05;;;2.22;;
24483;SDS011;12643;51.620;7.548;2023-07-13T04:06:48;3.15;;;1.50;;
24483;SDS011;12643;51.620;7.548;2023-07-13T04:09:18;5.03;;;2.17;;
24483;SDS011;12643;51.620;7.548;2023-07-13T04:11:46;7.25;;;1.73;;
24483;SDS011;12643;51.620;7.548;2023-07-13T04:14:15;4.68;;;1.95;;
24483;SDS011;12643;51.620;7.548;2023-07-13T04:16:43;5.45;;;2.05;;
24483;SDS011;12643;51.620;7.548;2023-07-13T04:19:12;4.57;;;1.63;;
24483;SDS011;12643;51.620;7.548;2023-07-13T04:21:40;4.55;;;1.63;;
24483;SDS011;12643;51.620;7.548;2023-07-13T04:24:08;6.53;;;1.88;;
24483;SDS011;12643;51.620;7.548;2023-07-13T04:26:36;5.00;;;1.90;;
24483;SDS011;12643;51.620;7.548;2023-07-13T04:29:04;7.88;;;1.65;;
24483;SDS011;12643;51.620;7.548;2023-07-13T04:31:33;3.72;;;1.55;;
24483;SDS011;12643;51.620;7.548;2023-07-13T04:34:01;10.52;;;2.55;;
24483;SDS011;12643;51.620;7.548;2023-07-13T04:36:29;5.25;;;1.90;;
24483;SDS011;12643;51.620;7.548;2023-07-13T04:38:57;4.10;;;1.60;;
24483;SDS011;12643;51.620;7.548;2023-07-13T04:41:25;18.67;;;2.45;;
24483;SDS011;12643;51.620;7.548;2023-07-13T04:43:53;9.15;;;2.28;;
24483;SDS011;12643;51.620;7.548;2023-07-13T04:46:21;5.20;;;1.83;;
24483;SDS011;12643;51.620;7.548;2023-07-13T04:48:51;11.95;;;2.38;;
24483;SDS011;12643;51.620;7.548;2023-07-13T04:51:19;6.75;;;1.50;;
24483;SDS011;12643;51.620;7.548;2023-07-13T04:53:47;5.47;;;1.85;;
24483;SDS011;12643;51.620;7.548;2023-07-13T04:56:15;5.78;;;2.10;;
24483;SDS011;12643;51.620;7.548;2023-07-13T04:58:43;12.60;;;2.08;;
24483;SDS011;12643;51.620;7.548;2023-07-13T05:01:11;9.57;;;1.90;;
24483;SDS011;12643;51.620;7.548;2023-07-13T05:03:39;10.30;;;2.33;;
24483;SDS011;12643;51.620;7.548;2023-07-13T05:06:08;5.32;;;1.90;;
24483;SDS011;12643;51.620;7.548;2023-07-13T05:08:36;11.25;;;2.10;;
24483;SDS011;12643;51.620;7.548;2023-07-13T05:11:04;8.68;;;2.08;;
24483;SDS011;12643;51.620;7.548;2023-07-13T05:13:33;10.80;;;2.58;;
24483;SDS011;12643;51.620;7.548;2023-07-13T05:16:02;9.23;;;2.17;;
24483;SDS011;12643;51.620;7.548;2023-07-13T05:18:31;7.75;;;2.38;;
24483;SDS011;12643;51.620;7.548;2023-07-13T05:21:00;8.70;;;2.88;;
24483;SDS011;12643;51.620;7.548;2023-07-13T05:23:31;9.53;;;2.87;;
24483;SDS011;12643;51.620;7.548;2023-07-13T05:26:00;7.80;;;2.53;;
24483;SDS011;12643;51.620;7.548;2023-07-13T05:28:30;9.68;;;2.40;;
24483;SDS011;12643;51.620;7.548;2023-07-13T05:30:59;5.03;;;2.00;;
24483;SDS011;12643;51.620;7.548;2023-07-13T05:33:27;7.65;;;2.22;;
24483;SDS011;12643;51.620;7.548;2023-07-13T05:35:55;6.63;;;1.90;;
24483;SDS011;12643;51.620;7.548;2023-07-13T05:38:23;7.00;;;2.45;;
24483;SDS011;12643;51.620;7.548;2023-07-13T05:40:53;5.88;;;2.22;;
24483;SDS011;12643;51.620;7.548;2023-07-13T05:43:22;8.70;;;2.63;;
24483;SDS011;12643;51.620;7.548;2023-07-13T05:45:51;13.65;;;2.75;;
24483;SDS011;12643;51.620;7.548;2023-07-13T05:48:19;7.85;;;2.13;;
24483;SDS011;12643;51.620;7.548;2023-07-13T05:50:47;8.63;;;2.50;;
24483;SDS011;12643;51.620;7.548;2023-07-13T05:53:15;4.22;;;2.33;;
24483;SDS011;12643;51.620;7.548;2023-07-13T05:55:44;7.88;;;3.40;;
24483;SDS011;12643;51.620;7.548;2023-07-13T05:58:17;9.85;;;2.47;;
24483;SDS011;12643;51.620;7.548;2023-07-13T06:00:46;12.57;;;2.80;;
24483;SDS011;12643;51.620;7.548;2023-07-13T06:03:14;10.75;;;2.63;;
24483;SDS011;12643;51.620;7.548;2023-07-13T06:05:42;6.63;;;2.28;;
24483;SDS011;12643;51.620;7.548;2023-07-13T06:08:10;7.50;;;2.60;;
24483;SDS011;12643;51.620;7.548;2023-07-13T06:10:38;8.27;;;2.53;;
24483;SDS011;12643;51.620;7.548;2023-07-13T06:13:05;9.10;;;2.47;;
24483;SDS011;12643;51.620;7.548;2023-07-13T06:15:35;7.07;;;2.83;;
24483;SDS011;12643;51.620;7.548;2023-07-13T06:18:02;16.95;;;3.30;;
24483;SDS011;12643;51.620;7.548;2023-07-13T06:20:33;8.15;;;2.85;;
24483;SDS011;12643;51.620;7.548;2023-07-13T06:23:01;11.60;;;2.97;;
24483;SDS011;12643;51.620;7.548;2023-07-13T06:25:29;10.00;;;2.55;;
24483;SDS011;12643;51.620;7.548;2023-07-13T06:27:56;13.30;;;3.13;;
24483;SDS011;12643;51.620;7.548;2023-07-13T06:30:24;10.23;;;3.08;;
24483;SDS011;12643;51.620;7.548;2023-07-13T06:32:53;11.90;;;3.08;;
24483;SDS011;12643;51.620;7.548;2023-07-13T06:35:21;9.40;;;3.17;;
24483;SDS011;12643;51.620;7.548;2023-07-13T06:37:49;8.65;;;2.78;;
24483;SDS011;12643;51.620;7.548;2023-07-13T06:40:17;12.07;;;3.15;;
24483;SDS011;12643;51.620;7.548;2023-07-13T06:42:45;14.82;;;3.45;;
24483;SDS011;12643;51.620;7.548;2023-07-13T06:45:13;12.93;;;3.35;;
24483;SDS011;12643;51.620;7.548;2023-07-13T06:47:40;15.55;;;3.47;;
24483;SDS011;12643;51.620;7.548;2023-07-13T06:50:10;15.07;;;3.85;;
24483;SDS011;12643;51.620;7.548;2023-07-13T06:52:38;18.05;;;3.75;;
24483;SDS011;12643;51.620;7.548;2023-07-13T06:55:06;11.48;;;3.60;;
24483;SDS011;12643;51.620;7.548;2023-07-13T06:57:34;13.73;;;3.65;;
24483;SDS011;12643;51.620;7.548;2023-07-13T07:00:02;11.30;;;3.50;;
24483;SDS011;12643;51.620;7.548;2023-07-13T07:02:32;10.73;;;3.72;;
24483;SDS011;12643;51.620;7.548;2023-07-13T07:05:00;12.57;;;3.47;;
24483;SDS011;12643;51.620;7.548;2023-07-13T07:07:29;9.60;;;3.42;;
24483;SDS011;12643;51.620;7.548;2023-07-13T07:09:57;13.63;;;3.38;;
24483;SDS011;12643;51.620;7.548;2023-07-13T07:12:24;18.42;;;3.90;;
24483;SDS011;12643;51.620;7.548;2023-07-13T07:14:52;10.73;;;3.38;;
24483;SDS011;12643;51.620;7.548;2023-07-13T07:17:20;13.27;;;2.85;;
24483;SDS011;12643;51.620;7.548;2023-07-13T07:19:48;11.00;;;3.22;;
24483;SDS011;12643;51.620;7.548;2023-07-13T07:22:16;12.60;;;3.55;;
24483;SDS011;12643;51.620;7.548;2023-07-13T07:24:45;14.13;;;3.33;;
24483;SDS011;12643;51.620;7.548;2023-07-13T07:27:13;11.20;;;3.78;;
24483;SDS011;12643;51.620;7.548;2023-07-13T07:29:41;9.13;;;3.08;;
24483;SDS011;12643;51.620;7.548;2023-07-13T07:32:09;8.52;;;2.80;;
24483;SDS011;12643;51.620;7.548;2023-07-13T07:34:36;10.38;;;2.88;;
24483;SDS011;12643;51.620;7.548;2023-07-13T07:37:04;11.18;;;2.80;;
24483;SDS011;12643;51.620;7.548;2023-07-13T07:39:32;12.00;;;3.55;;
24483;SDS011;12643;51.620;7.548;2023-07-13T07:42:02;9.95;;;3.08;;
24483;SDS011;12643;51.620;7.548;2023-07-13T07:44:30;9.30;;;3.15;;
24483;SDS011;12643;51.620;7.548;2023-07-13T07:46:58;5.93;;;2.88;;
24483;SDS011;12643;51.620;7.548;2023-07-13T07:49:26;8.57;;;2.83;;
24483;SDS011;12643;51.620;7.548;2023-07-13T07:51:54;9.77;;;3.42;;
24483;SDS011;12643;51.620;7.548;2023-07-13T07:54:22;11.98;;;3.28;;
24483;SDS011;12643;51.620;7.548;2023-07-13T07:56:50;10.43;;;3.40;;
24483;SDS011;12643;51.620;7.548;2023-07-13T07:59:19;11.43;;;3.17;;
24483;SDS011;12643;51.620;7.548;2023-07-13T08:01:47;14.27;;;3.90;;
24483;SDS011;12643;51.620;7.548;2023-07-13T08:04:16;13.98;;;4.05;;
24483;SDS011;12643;51.620;7.548;2023-07-13T08:06:44;8.88;;;3.00;;
24483;SDS011;12643;51.620;7.548;2023-07-13T08:09:11;12.15;;;3.40;;
24483;SDS011;12643;51.620;7.548;2023-07-13T08:11:39;11.43;;;3.00;;
24483;SDS011;12643;51.620;7.548;2023-07-13T08:14:07;12.25;;;3.47;;
24483;SDS011;12643;51.620;7.548;2023-07-13T08:16:37;9.60;;;3.05;;
24483;SDS011;12643;51.620;7.548;2023-07-13T08:19:05;8.57;;;3.33;;
24483;SDS011;12643;51.620;7.548;2023-07-13T08:21:32;7.82;;;2.80;;
24483;SDS011;12643;51.620;7.548;2023-07-13T08:24:00;9.98;;;2.53;;
24483;SDS011;12643;51.620;7.548;2023-07-13T08:26:28;13.52;;;3.55;;
24483;SDS011;12643;51.620;7.548;2023-07-13T08:28:56;8.77;;;3.17;;
24483;SDS011;12643;51.620;7.548;2023-07-13T08:31:24;9.07;;;3.28;;
24483;SDS011;12643;51.620;7.548;2023-07-13T08:33:53;11.07;;;3.17;;
24483;SDS011;12643;51.620;7.548;2023-07-13T08:36:21;14.57;;;3.83;;
24483;SDS011;12643;51.620;7.548;2023-07-13T08:38:49;7.35;;;2.85;;
24483;SDS011;12643;51.620;7.548;2023-07-13T08:41:17;7.90;;;3.22;;
24483;SDS011;12643;51.620;7.548;2023-07-13T08:43:49;7.55;;;2.90;;
24483;SDS011;12643;51.620;7.548;2023-07-13T08:46:19;10.73;;;2.90;;
24483;SDS011;12643;51.620;7.548;2023-07-13T08:48:57;9.05;;;2.97;;
24483;SDS011;12643;51.620;7.548;2023-07-13T08:51:29;9.93;;;2.95;;
24483;SDS011;12643;51.620;7.548;2023-07-13T08:54:09;7.63;;;2.90;;
24483;SDS011;12643;51.620;7.548;2023-07-13T08:56:45;7.28;;;2.70;;
24483;SDS011;12643;51.620;7.548;2023-07-13T08:59:14;7.22;;;2.35;;
24483;SDS011;12643;51.620;7.548;2023-07-13T09:02:03;12.63;;;3.00;;
24483;SDS011;12643;51.620;7.548;2023-07-13T09:04:53;8.30;;;2.50;;
24483;SDS011;12643;51.620;7.548;2023-07-13T09:07:26;6.28;;;2.70;;
24483;SDS011;12643;51.620;7.548;2023-07-13T09:10:05;6.65;;;2.40;;
24483;SDS011;12643;51.620;7.548;2023-07-13T09:12:44;7.72;;;2.22;;
24483;SDS011;12643;51.620;7.548;2023-07-13T09:15:22;11.15;;;3.10;;
24483;SDS011;12643;51.620;7.548;2023-07-13T09:17:56;6.25;;;2.08;;
24483;SDS011;12643;51.620;7.548;2023-07-13T09:20:32;9.63;;;3.10;;
24483;SDS011;12643;51.620;7.548;2023-07-13T09:23:04;8.98;;;2.83;;
24483;SDS011;12643;51.620;7.548;2023-07-13T09:25:36;10.68;;;2.47;;
24483;SDS011;12643;51.620;7.548;2023-07-13T09:28:09;9.45;;;2.92;;
24483;SDS011;12643;51.620;7.548;2023-07-13T09:30:44;7.35;;;2.63;;
24483;SDS011;12643;51.620;7.548;2023-07-13T09:33:15;5.80;;;2.40;;
24483;SDS011;12643;51.620;7.548;2023-07-13T09:35:44;6.05;;;2.20;;
24483;SDS011;12643;51.620;7.548;2023-07-13T09:38:12;7.38;;;2.72;;
24483;SDS011;12643;51.620;7.548;2023-07-13T09:40:59;7.63;;;2.88;;
24483;SDS011;12643;51.620;7.548;2023-07-13T09:43:37;8.35;;;2.50;;
24483;SDS011;12643;51.620;7.548;2023-07-13T09:46:08;6.88;;;2.65;;
24483;SDS011;12643;51.620;7.548;2023-07-13T09:48:48;8.95;;;2.80;;
24483;SDS011;12643;51.620;7.548;2023-07-13T09:51:17;6.63;;;2.42;;
24483;SDS011;12643;51.620;7.548;2023-07-13T09:53:45;10.95;;;3.00;;
24483;SDS011;12643;51.620;7.548;2023-07-13T09:56:20;7.50;;;2.80;;
24483;SDS011;12643;51.620;7.548;2023-07-13T09:58:48;6.38;;;2.58;;
24483;SDS011;12643;51.620;7.548;2023-07-13T10:01:17;6.50;;;2.40;;
24483;SDS011;12643;51.620;7.548;2023-07-13T10:03:59;6.10;;;2.35;;
24483;SDS011;12643;51.620;7.548;2023-07-13T10:06:28;7.18;;;3.00;;
24483;SDS011;12643;51.620;7.548;2023-07-13T10:08:56;5.57;;;2.60;;
24483;SDS011;12643;51.620;7.548;2023-07-13T10:11:26;13.90;;;2.72;;
24483;SDS011;12643;51.620;7.548;2023-07-13T10:16:25;9.77;;;2.90;;
24483;SDS011;12643;51.620;7.548;2023-07-13T10:18:59;9.95;;;2.80;;
24483;SDS011;12643;51.620;7.548;2023-07-13T10:21:33;12.93;;;2.67;;
24483;SDS011;12643;51.620;7.548;2023-07-13T10:24:06;5.88;;;2.30;;
24483;SDS011;12643;51.620;7.548;2023-07-13T10:26:42;8.23;;;3.15;;
24483;SDS011;12643;51.620;7.548;2023-07-13T10:29:14;6.68;;;2.53;;
24483;SDS011;12643;51.620;7.548;2023-07-13T10:31:44;6.72;;;2.88;;
24483;SDS011;12643;51.620;7.548;2023-07-13T10:34:12;9.23;;;2.97;;
24483;SDS011;12643;51.620;7.548;2023-07-13T10:36:42;8.35;;;2.88;;
24483;SDS011;12643;51.620;7.548;2023-07-13T10:39:14;6.75;;;2.70;;
24483;SDS011;12643;51.620;7.548;2023-07-13T10:41:44;12.18;;;3.45;;
24483;SDS011;12643;51.620;7.548;2023-07-13T10:44:18;15.07;;;3.60;;
24483;SDS011;12643;51.620;7.548;2023-07-13T10:46:52;9.05;;;3.42;;
24483;SDS011;12643;51.620;7.548;2023-07-13T10:49:23;8.68;;;3.00;;
24483;SDS011;12643;51.620;7.548;2023-07-13T10:51:54;8.48;;;2.78;;
24483;SDS011;12643;51.620;7.548;2023-07-13T10:54:26;7.38;;;3.63;;
24483;SDS011;12643;51.620;7.548;2023-07-13T10:57:16;12.45;;;3.40;;
24483;SDS011;12643;51.620;7.548;2023-07-13T10:59:46;10.65;;;3.40;;
24483;SDS011;12643;51.620;7.548;2023-07-13T11:02:21;7.05;;;2.90;;
24483;SDS011;12643;51.620;7.548;2023-07-13T11:04:53;11.23;;;2.50;;
24483;SDS011;12643;51.620;7.548;2023-07-13T11:07:25;8.77;;;3.40;;
24483;SDS011;12643;51.620;7.548;2023-07-13T11:09:54;5.93;;;2.85;;
24483;SDS011;12643;51.620;7.548;2023-07-13T11:15:27;7.68;;;2.80;;
24483;SDS011;12643;51.620;7.548;2023-07-13T11:18:02;7.82;;;2.97;;
24483;SDS011;12643;51.620;7.548;2023-07-13T11:20:35;9.32;;;3.17;;
24483;SDS011;12643;51.620;7.548;2023-07-13T11:23:17;10.35;;;3.10;;
24483;SDS011;12643;51.620;7.548;2023-07-13T11:26:01;7.57;;;3.00;;
24483;SDS011;12643;51.620;7.548;2023-07-13T11:28:30;5.78;;;2.58;;
24483;SDS011;12643;51.620;7.548;2023-07-13T11:31:03;10.70;;;3.72;;
24483;SDS011;12643;51.620;7.548;2023-07-13T11:33:48;7.28;;;2.90;;
24483;SDS011;12643;51.620;7.548;2023-07-13T11:36:18;7.97;;;2.95;;
24483;SDS011;12643;51.620;7.548;2023-07-13T11:38:54;7.97;;;2.50;;
24483;SDS011;12643;51.620;7.548;2023-07-13T11:41:26;10.52;;;3.22;;
24483;SDS011;12643;51.620;7.548;2023-07-13T11:44:02;5.53;;;2.22;;
24483;SDS011;12643;51.620;7.548;2023-07-13T11:46:34;5.65;;;3.05;;
24483;SDS011;12643;51.620;7.548;2023-07-13T11:49:04;4.82;;;2.30;;
24483;SDS011;12643;51.620;7.548;2023-07-13T11:51:34;6.25;;;2.90;;
24483;SDS011;12643;51.620;7.548;2023-07-13T11:54:04;4.90;;;2.60;;
24483;SDS011;12643;51.620;7.548;2023-07-13T11:56:40;6.72;;;3.03;;
24483;SDS011;12643;51.620;7.548;2023-07-13T11:59:10;7.82;;;2.50;;
24483;SDS011;12643;51.620;7.548;2023-07-13T12:01:42;6.35;;;2.80;;
24483;SDS011;12643;51.620;7.548;2023-07-13T12:04:21;6.93;;;2.65;;
24483;SDS011;12643;51.620;7.548;2023-07-13T12:06:57;7.03;;;2.63;;
24483;SDS011;12643;51.620;7.548;2023-07-13T12:09:32;6.55;;;2.30;;
24483;SDS011;12643;51.620;7.548;2023-07-13T12:12:02;4.30;;;2.35;;
24483;SDS011;12643;51.620;7.548;2023-07-13T12:14:33;6.45;;;2.85;;
24483;SDS011;12643;51.620;7.548;2023-07-13T12:17:01;6.47;;;2.45;;
24483;SDS011;12643;51.620;7.548;2023-07-13T12:19:30;7.95;;;2.67;;
24483;SDS011;12643;51.620;7.548;2023-07-13T12:21:58;6.85;;;2.53;;
24483;SDS011;12643;51.620;7.548;2023-07-13T12:24:26;8.05;;;2.67;;
24483;SDS011;12643;51.620;7.548;2023-07-13T12:27:00;8.60;;;2.53;;
24483;SDS011;12643;51.620;7.548;2023-07-13T12:29:30;5.15;;;2.20;;
24483;SDS011;12643;51.620;7.548;2023-07-13T12:31:59;3.95;;;1.55;;
24483;SDS011;12643;51.620;7.548;2023-07-13T12:34:27;6.25;;;2.38;;
24483;SDS011;12643;51.620;7.548;2023-07-13T12:36:55;7.15;;;2.53;;
24483;SDS011;12643;51.620;7.548;2023-07-13T12:39:28;5.28;;;2.13;;
24483;SDS011;12643;51.620;7.548;2023-07-13T12:42:18;5.47;;;2.00;;
24483;SDS011;12643;51.620;7.548;2023-07-13T12:44:49;5.47;;;2.47;;
24483;SDS011;12643;51.620;7.548;2023-07-13T12:47:20;5.65;;;2.33;;
24483;SDS011;12643;51.620;7.548;2023-07-13T12:49:49;3.70;;;2.33;;
24483;SDS011;12643;51.620;7.548;2023-07-13T12:52:22;7.53;;;2.20;;
24483;SDS011;12643;51.620;7.548;2023-07-13T12:54:56;7.07;;;2.17;;
24483;SDS011;12643;51.620;7.548;2023-07-13T12:57:27;7.30;;;2.50;;
24483;SDS011;12643;51.620;7.548;2023-07-13T12:59:55;7.28;;;2.50;;
24483;SDS011;12643;51.620;7.548;2023-07-13T13:02:26;3.63;;;2.00;;
24483;SDS011;12643;51.620;7.548;2023-07-13T13:04:56;7.32;;;2.55;;
24483;SDS011;12643;51.620;7.548;2023-07-13T13:07:25;7.00;;;2.05;;
24483;SDS011;12643;51.620;7.548;2023-07-13T13:09:56;6.53;;;2.60;;
24483;SDS011;12643;51.620;7.548;2023-07-13T13:12:24;5.55;;;2.28;;
24483;SDS011;12643;51.620;7.548;2023-07-13T13:14:54;8.13;;;2.67;;
24483;SDS011;12643;51.620;7.548;2023-07-13T13:17:22;5.20;;;2.05;;
24483;SDS011;12643;51.620;7.548;2023-07-13T13:19:54;9.32;;;2.35;;
24483;SDS011;12643;51.620;7.548;2023-07-13T13:22:22;5.05;;;2.10;;
24483;SDS011;12643;51.620;7.548;2023-07-13T13:24:51;7.15;;;2.58;;
24483;SDS011;12643;51.620;7.548;2023-07-13T13:27:21;6.53;;;2.33;;
24483;SDS011;12643;51.620;7.548;2023-07-13T13:29:52;8.73;;;2.43;;
24483;SDS011;12643;51.620;7.548;2023-07-13T13:32:21;7.18;;;2.25;;
24483;SDS011;12643;51.620;7.548;2023-07-13T13:34:49;8.05;;;2.65;;
24483;SDS011;12643;51.620;7.548;2023-07-13T13:37:18;9.18;;;2.28;;
24483;SDS011;12643;51.620;7.548;2023-07-13T13:39:48;8.10;;;3.15;;
24483;SDS011;12643;51.620;7.548;2023-07-13T13:42:19;7.22;;;2.92;;
24483;SDS011;12643;51.620;7.548;2023-07-13T13:44:52;9.23;;;3.10;;
24483;SDS011;12643;51.620;7.548;2023-07-13T13:47:29;6.93;;;2.53;;
24483;SDS011;12643;51.620;7.548;2023-07-13T13:50:00;5.07;;;2.80;;
24483;SDS011;12643;51.620;7.548;2023-07-13T13:52:36;4.10;;;2.78;;
24483;SDS011;12643;51.620;7.548;2023-07-13T13:55:11;9.38;;;3.42;;
24483;SDS011;12643;51.620;7.548;2023-07-13T13:57:40;7.00;;;3.28;;
24483;SDS011;12643;51.620;7.548;2023-07-13T14:00:11;5.88;;;3.22;;
24483;SDS011;12643;51.620;7.548;2023-07-13T14:02:40;8.52;;;3.70;;
24483;SDS011;12643;51.620;7.548;2023-07-13T14:05:21;9.38;;;4.05;;
24483;SDS011;12643;51.620;7.548;2023-07-13T14:07:51;6.78;;;3.80;;
24483;SDS011;12643;51.620;7.548;2023-07-13T14:10:19;5.30;;;3.75;;
24483;SDS011;12643;51.620;7.548;2023-07-13T14:12:48;5.18;;;3.17;;
24483;SDS011;12643;51.620;7.548;2023-07-13T14:15:22;6.88;;;3.78;;
24483;SDS011;12643;51.620;7.548;2023-07-13T14:17:51;5.25;;;3.72;;
24483;SDS011;12643;51.620;7.548;2023-07-13T14:20:20;5.88;;;3.75;;
24483;SDS011;12643;51.620;7.548;2023-07-13T14:22:50;5.25;;;3.88;;
24483;SDS011;12643;51.620;7.548;2023-07-13T14:25:19;5.35;;;3.78;;
24483;SDS011;12643;51.620;7.548;2023-07-13T14:27:49;3.63;;;3.28;;
24483;SDS011;12643;51.620;7.548;2023-07-13T14:30:23;6.03;;;3.88;;
24483;SDS011;12643;51.620;7.548;2023-07-13T14:32:51;5.50;;;3.67;;
24483;SDS011;12643;51.620;7.548;2023-07-13T14:35:20;3.80;;;3.17;;
24483;SDS011;12643;51.620;7.548;2023-07-13T14:37:50;4.65;;;2.95;;
24483;SDS011;12643;51.620;7.548;2023-07-13T14:40:45;5.55;;;3.45;;
24483;SDS011;12643;51.620;7.548;2023-07-13T14:43:15;5.53;;;3.25;;
24483;SDS011;12643;51.620;7.548;2023-07-13T14:45:46;3.90;;;3.22;;
24483;SDS011;12643;51.620;7.548;2023-07-13T14:48:16;5.03;;;2.72;;
24483;SDS011;12643;51.620;7.548;2023-07-13T14:50:46;4.18;;;3.25;;
24483;SDS011;12643;51.620;7.548;2023-07-13T14:53:14;7.95;;;3.15;;
24483;SDS011;12643;51.620;7.548;2023-07-13T14:55:42;6.05;;;3.33;;
24483;SDS011;12643;51.620;7.548;2023-07-13T14:58:09;6.63;;;3.40;;
24483;SDS011;12643;51.620;7.548;2023-07-13T15:00:39;5.75;;;3.55;;
24483;SDS011;12643;51.620;7.548;2023-07-13T15:03:12;6.15;;;3.28;;
24483;SDS011;12643;51.620;7.548;2023-07-13T15:05:47;4.60;;;2.85;;
24483;SDS011;12643;51.620;7.548;2023-07-13T15:08:16;5.72;;;3.10;;
24483;SDS011;12643;51.620;7.548;2023-07-13T15:10:47;6.13;;;3.40;;
24483;SDS011;12643;51.620;7.548;2023-07-13T15:13:16;6.30;;;3.78;;